Time;durP1;ratioP1;P1;durP2;ratioP2;P2;SDS_P1;SDS_P2;PMS_P1;PMS_P2;Temp;Humidity;BMP_temperature;BMP_pressure;BME280_temperature;BME280_humidity;BME280_pressure;Samples;Min_cycle;Max_cycle;Signal;HPM_P1;HPM_P2
2023/05/22 10:04:48;;;;;;;;;;;;;;;14.10;100.00;99325.16;2589516;23;19936;-84
2023/05/22 10:08:04;;;;;;;;;;;;;;;10.35;100.00;99325.06;4985193;28;20016;-91
2023/05/22 10:13:52;;;;;;;;;;;;;;;;;;;;;
2023/05/22 10:17:23;;;;;;;;;;;;;;;7.25;100.00;99325.03;5002451;28;20023;-89
2023/05/22 10:19:36;;;;;;;;;;;;;;;7.09;100.00;99320.28;4940894;28;19984;-93
2023/05/22 10:22:15;;;;;;;;;;;;;;;;;;;;;
2023/05/22 10:25:53;;;;;;;;;;;;;;;7.09;100.00;99315.03;5000966;28;19917;-88
2023/05/22 10:28:03;;;;;;;;;;;;;;;6.99;100.00;99313.66;4911894;29;20421;-90
2023/05/22 10:30:38;;;;;;;;;;;;;;;7.02;100.00;99305.66;4905328;29;19923;-90
2023/05/22 10:39:45;;;;;;;;;;;;;;;6.98;100.00;99297.91;4894056;29;19955;-91
2023/05/22 10:42:20;;;;;;;;;;;;;;;6.91;100.00;99295.47;4903390;29;19923;-89
2023/05/22 10:48:03;;;;;;;;;;;;;;;6.86;100.00;99305.31;4963541;28;19933;-89
2023/05/22 10:50:29;;;;;;;;;;;;;;;6.91;100.00;99295.47;5118782;23;20009;-85
2023/05/22 10:56:21;;;;;;;;;;;;;;;6.90;100.00;99298.16;4943174;29;19977;-88
2023/05/22 10:59:07;;;;;;;;;;;;;;;;;;;;;
2023/05/22 11:02:05;;;;;;;;;;;;;;;;;;;;;
2023/05/22 11:05:09;;;;;;;;;;;;;;;;;;;;;
2023/05/22 11:07:54;;;;;;;;;;;;;;;;;;;;;
2023/05/22 11:13:36;;;;;;;;;;;;;;;6.88;100.00;99271.88;4972061;28;19918;-89
2023/05/22 11:16:42;;;;;;;;;;;;;;;6.90;100.00;99282.38;4983318;28;19957;-88
2023/05/22 11:19:13;;;;;;;;;;;;;;;6.86;100.00;99280.75;4915848;29;19915;-89
2023/05/22 11:22:17;;;;;;;;;;;;;;;;;;;;;
2023/05/22 11:25:13;;;;;;;;;;;;;;;;;;;;;
2023/05/22 11:28:00;;;;;;;;;;;;;;;6.92;100.00;99267.34;4916150;29;19919;-89
2023/05/22 11:30:38;;;;;;;;;;;;;;;6.84;100.00;99278.16;4915585;29;19930;-88
2023/05/22 11:36:16;;;;;;;;;;;;;;;6.85;100.00;99271.16;4907573;29;19923;-88
2023/05/22 11:57:59;;;;;;;;;;;;;;;;;;;;;
2023/05/22 12:25:11;;;;;;;;;;;;;;;6.39;100.00;99263.06;5010304;23;19972;-86
2023/05/22 12:30:16;;;;;;;;;;;;;;;6.34;100.00;99267.63;5026273;23;19926;-91
2023/05/22 12:32:53;;;;;;;;;;;;;;;6.36;100.00;99264.03;4963030;23;19929;-90
2023/05/22 12:35:21;;;;;;;;;;;;;;;6.34;100.00;99273.75;4974283;28;19928;-88
2023/05/22 12:37:52;;;;;;;;;;;;;;;6.28;100.00;99266.06;4974552;28;19925;-89
2023/05/22 12:40:17;;;;;;;;;;;;;;;6.45;100.00;99272.53;4974588;28;19924;-86
2023/05/22 12:45:28;;;;;;;;;;;;;;;8.81;100.00;99272.19;4985363;28;20017;-85
2023/05/22 12:47:53;;;;;;;;;;;;;;;6.81;100.00;99265.13;4993983;28;20001;-85
2023/05/22 12:50:23;;;;;;;;;;;;;;;6.54;100.00;99267.81;4993792;28;20281;-88
2023/05/22 12:52:51;;;;;;;;;;;;;;;6.48;100.00;99267.19;4993853;28;19917;-86
2023/05/22 12:55:16;;;;;;;;;;;;;;;6.33;100.00;99273.78;4992386;28;19917;-86
2023/05/22 12:57:51;;;;;;;;;;;;;;;;;;;;;
2023/05/22 13:00:17;;;;;;;;;;;;;;;6.46;100.00;99274.25;4993612;28;19913;-87
2023/05/22 13:02:45;;;;;;;;;;;;;;;6.44;100.00;99276.06;4993694;28;20075;-90
2023/05/22 13:05:10;;;;;;;;;;;;;;;6.34;100.00;99279.00;4975666;28;19925;-86
2023/05/22 13:07:36;;;;;;;;;;;;;;;6.33;100.00;99282.56;4992124;28;20269;-86
2023/05/22 13:10:02;;;;;;;;;;;;;;;6.39;100.00;99278.00;4974625;28;19921;-85
2023/05/22 13:12:29;;;;;;;;;;;;;;;6.34;100.00;99265.84;4993578;28;19918;-85
2023/05/22 13:14:57;;;;;;;;;;;;;;;6.33;100.00;99263.28;4992659;28;19928;-85
2023/05/22 13:17:32;;;;;;;;;;;;;;;;;;;;;
2023/05/22 13:19:58;;;;;;;;;;;;;;;6.24;100.00;99256.56;4993113;28;19940;-85
2023/05/22 13:22:26;;;;;;;;;;;;;;;6.28;100.00;99259.94;4993213;28;20438;-87
2023/05/22 13:24:54;;;;;;;;;;;;;;;6.34;100.00;99255.31;4973682;28;19968;-86
2023/05/22 13:27:22;;;;;;;;;;;;;;;6.32;100.00;99240.53;4993051;28;20258;-86
2023/05/22 13:29:53;;;;;;;;;;;;;;;6.30;100.00;99243.22;4993163;28;19921;-87
2023/05/22 13:32:18;;;;;;;;;;;;;;;6.28;100.00;99239.75;4992801;28;20039;-86
2023/05/22 13:34:44;;;;;;;;;;;;;;;6.36;100.00;99242.97;4993070;28;19917;-86
2023/05/22 13:37:09;;;;;;;;;;;;;;;6.32;100.00;99246.63;4992946;28;19918;-85
2023/05/22 13:39:37;;;;;;;;;;;;;;;6.38;100.00;99245.53;4990326;28;19922;-87
2023/05/22 13:42:02;;;;;;;;;;;;;;;6.35;100.00;99249.16;4992542;28;20031;-86
2023/05/22 13:44:28;;;;;;;;;;;;;;;6.39;100.00;99249.06;4992786;28;19918;-86
2023/05/22 13:46:55;;;;;;;;;;;;;;;6.34;100.00;99255.31;4992851;28;20296;-85
2023/05/22 13:49:23;;;;;;;;;;;;;;;6.35;100.00;99246.53;4992679;28;19983;-86
2023/05/22 13:51:49;;;;;;;;;;;;;;;6.39;100.00;99251.69;4991200;28;20301;-86
2023/05/22 13:54:24;;;;;;;;;;;;;;;;;;;;;
2023/05/22 13:56:50;;;;;;;;;;;;;;;6.43;100.00;99248.03;4992580;28;19918;-87
2023/05/22 13:59:15;;;;;;;;;;;;;;;6.39;100.00;99249.06;4975200;28;20424;-86
2023/05/22 14:01:41;;;;;;;;;;;;;;;6.42;100.00;99246.31;4991392;28;19965;-87
2023/05/22 14:04:06;;;;;;;;;;;;;;;6.36;100.00;99242.97;4992639;28;20488;-85
2023/05/22 14:06:33;;;;;;;;;;;;;;;6.34;100.00;99236.91;4991268;28;19914;-85
2023/05/22 14:09:08;;;;;;;;;;;;;;;6.33;100.00;99243.09;4992867;28;19928;-87
2023/05/22 14:11:34;;;;;;;;;;;;;;;6.36;100.00;99237.72;4991505;28;19941;-87
2023/05/22 14:13:59;;;;;;;;;;;;;;;6.40;100.00;99241.13;4992510;28;20350;-88
2023/05/22 14:16:24;;;;;;;;;;;;;;;6.39;100.00;99236.75;4992535;28;20270;-92
2023/05/22 14:18:55;;;;;;;;;;;;;;;6.31;100.00;99237.00;4975019;28;19917;-87
2023/05/22 14:21:20;;;;;;;;;;;;;;;6.41;100.00;99239.34;4992327;28;20016;-88
2023/05/22 14:23:48;;;;;;;;;;;;;;;6.34;100.00;99239.53;4991318;28;20564;-88
2023/05/22 14:26:15;;;;;;;;;;;;;;;6.41;100.00;99244.59;4975928;28;19918;-88
2023/05/22 14:28:41;;;;;;;;;;;;;;;6.33;100.00;99239.59;4996383;28;19948;-88
2023/05/22 14:31:06;;;;;;;;;;;;;;;6.31;100.00;99244.06;4996487;28;19926;-87
2023/05/22 14:33:32;;;;;;;;;;;;;;;6.38;100.00;99247.34;4978610;28;19922;-87
2023/05/22 14:35:57;;;;;;;;;;;;;;;6.42;100.00;99251.59;4996358;28;20525;-86
2023/05/22 14:38:22;;;;;;;;;;;;;;;6.33;100.00;99240.47;4978613;28;19917;-86
2023/05/22 14:40:53;;;;;;;;;;;;;;;6.36;100.00;99242.97;4995056;28;19921;-88
2023/05/22 14:43:18;;;;;;;;;;;;;;;6.40;100.00;99232.34;4996021;28;19982;-87
2023/05/22 14:45:43;;;;;;;;;;;;;;;6.45;100.00;99235.69;4994982;28;19964;-88
2023/05/22 14:48:10;;;;;;;;;;;;;;;6.40;100.00;99232.34;4994769;28;19918;-85
2023/05/22 14:50:38;;;;;;;;;;;;;;;6.38;100.00;99240.28;4995930;28;19921;-88
2023/05/22 14:53:03;;;;;;;;;;;;;;;6.46;100.00;99232.13;4994761;28;20040;-86
2023/05/22 14:55:31;;;;;;;;;;;;;;;6.43;100.00;99221.72;4994620;28;20033;-88
2023/05/22 14:57:56;;;;;;;;;;;;;;;6.44;100.00;99229.56;4995033;28;20036;-88
2023/05/22 15:00:22;;;;;;;;;;;;;;;6.43;100.00;99224.34;4991542;28;19997;-87
2023/05/22 15:02:47;;;;;;;;;;;;;;;6.48;100.00;99233.81;4992999;28;20377;-89
2023/05/22 15:05:12;;;;;;;;;;;;;;;6.48;100.00;99240.84;4995355;28;19918;-88
2023/05/22 15:07:38;;;;;;;;;;;;;;;6.44;100.00;99257.66;4993380;28;19943;-89
2023/05/22 15:10:03;;;;;;;;;;;;;;;6.50;100.00;99254.81;4975758;28;20369;-87
2023/05/22 15:12:32;;;;;;;;;;;;;;;6.48;100.00;99257.50;4992562;28;19918;-87
2023/05/22 15:15:03;;;;;;;;;;;;;;;6.55;100.00;99260.78;4971836;28;20000;-86
2023/05/22 15:17:28;;;;;;;;;;;;;;;6.49;100.00;99269.75;4991976;28;19917;-86
2023/05/22 15:19:56;;;;;;;;;;;;;;;6.60;100.00;99260.63;4993647;28;19924;-86
2023/05/22 15:22:21;;;;;;;;;;;;;;;6.49;100.00;99268.88;4973747;28;19922;-86
2023/05/22 15:25:08;;;;;;;;;;;;;;;6.52;100.00;99271.41;4992397;28;20292;-86
2023/05/22 15:27:33;;;;;;;;;;;;;;;6.44;100.00;99281.34;4988035;28;20273;-87
2023/05/22 15:30:01;;;;;;;;;;;;;;;6.51;100.00;99288.09;4991913;28;20321;-84
2023/05/22 15:32:29;;;;;;;;;;;;;;;6.60;100.00;99294.84;4973779;28;20339;-85
2023/05/22 15:34:54;;;;;;;;;;;;;;;6.63;100.00;99292.09;4991308;28;19933;-85
2023/05/22 15:37:20;;;;;;;;;;;;;;;6.58;100.00;99294.88;4989977;28;19922;-84
2023/05/22 15:39:45;;;;;;;;;;;;;;;6.55;100.00;99303.72;4993632;28;19918;-85
2023/05/22 15:42:10;;;;;;;;;;;;;;;6.49;100.00;99303.97;4993288;28;19922;-86
2023/05/22 15:44:35;;;;;;;;;;;;;;;6.48;100.00;99310.13;4994733;28;19972;-85
2023/05/22 15:47:03;;;;;;;;;;;;;;;6.45;100.00;99315.50;4988220;28;20419;-85
2023/05/22 15:49:28;;;;;;;;;;;;;;;6.58;100.00;99312.47;4993052;28;19930;-84
2023/05/22 15:51:53;;;;;;;;;;;;;;;6.48;100.00;99319.81;4974587;28;20266;-85
2023/05/22 15:54:19;;;;;;;;;;;;;;;6.46;100.00;99316.34;4991614;28;20427;-86
2023/05/22 15:56:44;;;;;;;;;;;;;;;6.57;100.00;99324.75;4975798;28;20466;-85
2023/05/22 15:59:10;;;;;;;;;;;;;;;6.54;100.00;99317.84;4993548;28;19925;-86
2023/05/22 16:01:35;;;;;;;;;;;;;;;6.55;100.00;99319.53;4992894;28;20883;-84
2023/05/22 16:04:03;;;;;;;;;;;;;;;6.60;100.00;99324.66;4992785;28;19922;-86
2023/05/22 16:06:28;;;;;;;;;;;;;;;6.60;100.00;99329.91;4975797;28;19918;-84
2023/05/22 16:08:56;;;;;;;;;;;;;;;6.67;100.00;99328.81;4972019;28;19932;-85
2023/05/22 16:11:22;;;;;;;;;;;;;;;6.66;100.00;99334.13;4991433;28;19926;-86
2023/05/22 16:13:47;;;;;;;;;;;;;;;6.60;100.00;99323.78;4991181;28;19929;-85
2023/05/22 16:16:12;;;;;;;;;;;;;;;6.63;100.00;99324.53;4992471;28;19922;-84
2023/05/22 16:18:41;;;;;;;;;;;;;;;6.61;100.00;99326.38;4992662;28;19925;-85
2023/05/22 16:21:06;;;;;;;;;;;;;;;6.63;100.00;99324.53;4974152;28;20374;-84
2023/05/22 16:23:34;;;;;;;;;;;;;;;6.66;100.00;99323.59;4993038;28;20001;-83
2023/05/22 16:26:00;;;;;;;;;;;;;;;6.68;100.00;99319.13;4988994;28;19917;-83
2023/05/22 16:28:25;;;;;;;;;;;;;;;6.61;100.00;99326.38;4975487;28;19984;-83
2023/05/22 16:30:50;;;;;;;;;;;;;;;6.62;100.00;99328.09;4990310;28;19921;-84
2023/05/22 16:33:15;;;;;;;;;;;;;;;6.64;100.00;99333.31;4989034;28;19944;-84
2023/05/22 16:35:45;;;;;;;;;;;;;;;6.62;100.00;99333.38;4989521;28;20016;-84
2023/05/22 16:38:11;;;;;;;;;;;;;;;6.70;100.00;99338.34;4993264;28;19926;-84
2023/05/22 16:40:36;;;;;;;;;;;;;;;6.60;100.00;99342.22;4990466;28;20114;-84
2023/05/22 16:43:03;;;;;;;;;;;;;;;6.64;100.00;99342.06;4975999;28;20416;-84
2023/05/22 16:45:28;;;;;;;;;;;;;;;6.69;100.00;99340.13;4992075;28;19922;-84
2023/05/22 16:47:53;;;;;;;;;;;;;;;6.64;100.00;99347.34;4991730;28;20444;-84
2023/05/22 16:50:21;;;;;;;;;;;;;;;6.70;100.00;99344.50;4992373;28;19926;-85
2023/05/22 16:52:46;;;;;;;;;;;;;;;6.69;100.00;99344.56;4992371;28;20052;-84
2023/05/22 16:55:12;;;;;;;;;;;;;;;6.68;100.00;99341.03;4992628;28;20013;-84
2023/05/22 16:57:37;;;;;;;;;;;;;;;6.62;100.00;99336.00;4992712;28;19965;-83
2023/05/22 17:00:05;;;;;;;;;;;;;;;6.73;100.00;99328.59;4993074;28;20461;-84
2023/05/22 17:02:36;;;;;;;;;;;;;;;6.59;100.00;99332.59;4993419;28;20519;-85
2023/05/22 17:05:01;;;;;;;;;;;;;;;6.61;100.00;99331.66;4975046;28;20333;-86
2023/05/22 17:07:30;;;;;;;;;;;;;;;6.63;100.00;99337.72;4993609;28;19971;-84
2023/05/22 17:09:55;;;;;;;;;;;;;;;6.60;100.00;99331.69;4991940;28;19922;-87
2023/05/22 17:12:20;;;;;;;;;;;;;;;6.66;100.00;99334.13;4974499;28;20477;-85
2023/05/22 17:14:46;;;;;;;;;;;;;;;6.66;100.00;99329.72;4990436;28;19924;-84
2023/05/22 17:17:11;;;;;;;;;;;;;;;6.58;100.00;99334.38;4992487;28;19933;-84
2023/05/22 17:19:36;;;;;;;;;;;;;;;6.60;100.00;99331.69;4993384;28;20400;-84
2023/05/22 17:22:04;;;;;;;;;;;;;;;6.65;100.00;99324.50;4975798;28;20008;-84
2023/05/22 17:24:29;;;;;;;;;;;;;;;6.66;100.00;99331.50;4992091;28;19964;-84
2023/05/22 17:26:55;;;;;;;;;;;;;;;6.67;100.00;99326.16;4993306;28;20317;-84
2023/05/22 17:29:20;;;;;;;;;;;;;;;6.57;100.00;99332.66;4975135;28;19961;-84
2023/05/22 17:31:46;;;;;;;;;;;;;;;6.61;100.00;99326.38;4992874;28;20361;-84
2023/05/22 17:34:11;;;;;;;;;;;;;;;6.62;100.00;99320.22;4974813;28;19922;-85
2023/05/22 17:36:37;;;;;;;;;;;;;;;6.65;100.00;99328.00;4990208;28;20312;-83
2023/05/22 17:39:02;;;;;;;;;;;;;;;6.60;100.00;99318.53;4992476;28;20749;-83
2023/05/22 17:41:27;;;;;;;;;;;;;;;6.70;100.00;99319.91;4974206;28;19918;-84
2023/05/22 17:43:54;;;;;;;;;;;;;;;6.54;100.00;99317.84;4992297;28;20320;-84
2023/05/22 17:46:19;;;;;;;;;;;;;;;6.57;100.00;99318.63;4990931;28;19918;-84
2023/05/22 17:48:45;;;;;;;;;;;;;;;6.61;100.00;99317.63;4992074;28;20397;-84
2023/05/22 17:51:10;;;;;;;;;;;;;;;6.55;100.00;99319.53;4992850;28;20389;-83
2023/05/22 17:53:35;;;;;;;;;;;;;;;6.67;100.00;99317.38;4992747;28;19918;-84
2023/05/22 17:56:01;;;;;;;;;;;;;;;6.53;100.00;99318.72;4991473;28;19922;-84
2023/05/22 17:58:26;;;;;;;;;;;;;;;6.52;100.00;99310.88;4992442;28;19928;-84
2023/05/22 18:00:52;;;;;;;;;;;;;;;6.60;100.00;99314.13;4991135;28;19945;-84
2023/05/22 18:03:20;;;;;;;;;;;;;;;6.54;100.00;99319.59;4992495;28;19918;-85
2023/05/22 18:05:49;;;;;;;;;;;;;;;6.47;100.00;99324.19;4992713;28;19921;-84
2023/05/22 18:08:14;;;;;;;;;;;;;;;6.38;100.00;99323.66;4991356;28;19918;-83
2023/05/22 18:10:41;;;;;;;;;;;;;;;6.40;100.00;99322.69;4989774;28;20620;-83
2023/05/22 18:13:07;;;;;;;;;;;;;;;6.43;100.00;99322.59;4992529;28;20273;-83
2023/05/22 18:15:32;;;;;;;;;;;;;;;6.40;100.00;99321.81;4991256;28;19922;-84
2023/05/22 18:17:58;;;;;;;;;;;;;;;6.44;100.00;99324.28;4991498;28;20012;-84
2023/05/22 18:20:23;;;;;;;;;;;;;;;6.45;100.00;99322.53;4992496;28;19922;-84
2023/05/22 18:22:48;;;;;;;;;;;;;;;6.44;100.00;99331.34;4974945;28;19921;-84
2023/05/22 18:25:13;;;;;;;;;;;;;;;6.43;100.00;99333.13;4990876;28;19922;-84
2023/05/22 18:27:39;;;;;;;;;;;;;;;6.48;100.00;99335.59;4990838;28;19940;-84
2023/05/22 18:30:07;;;;;;;;;;;;;;;6.46;100.00;99343.56;4991055;28;20389;-85
2023/05/22 18:32:33;;;;;;;;;;;;;;;6.53;100.00;99345.06;4990675;28;20389;-85
2023/05/22 18:34:58;;;;;;;;;;;;;;;6.54;100.00;99352.06;4974881;28;20020;-85
2023/05/22 18:37:24;;;;;;;;;;;;;;;6.50;100.00;99355.69;4974297;28;19932;-85
2023/05/22 18:39:49;;;;;;;;;;;;;;;6.52;100.00;99358.25;4990914;28;20000;-85
2023/05/22 18:42:14;;;;;;;;;;;;;;;6.47;100.00;99361.03;4974879;28;19922;-85
2023/05/22 18:44:40;;;;;;;;;;;;;;;6.53;100.00;99374.00;4992077;28;19964;-85
2023/05/22 18:47:05;;;;;;;;;;;;;;;6.49;100.00;99375.03;4991723;28;20459;-85
2023/05/22 18:49:31;;;;;;;;;;;;;;;6.53;100.00;99387.16;4990774;28;19918;-85
2023/05/22 18:51:56;;;;;;;;;;;;;;;6.54;100.00;99380.13;4992327;28;20280;-85
2023/05/22 18:54:22;;;;;;;;;;;;;;;6.58;100.00;99392.28;4990849;28;20026;-85
2023/05/22 18:56:47;;;;;;;;;;;;;;;6.61;100.00;99383.44;4992191;28;19929;-84
2023/05/22 18:59:12;;;;;;;;;;;;;;;6.59;100.00;99378.22;4973939;28;20353;-85
2023/05/22 19:01:38;;;;;;;;;;;;;;;6.57;100.00;99382.66;4992171;28;19942;-84
2023/05/22 19:04:04;;;;;;;;;;;;;;;6.57;100.00;99381.81;4974690;28;19983;-86
2023/05/22 19:06:30;;;;;;;;;;;;;;;6.56;100.00;99388.84;4991287;28;20401;-85
2023/05/22 19:08:55;;;;;;;;;;;;;;;6.51;100.00;99388.13;4992020;28;20012;-85
2023/05/22 19:11:20;;;;;;;;;;;;;;;6.53;100.00;99392.44;4990195;28;19941;-85
2023/05/22 19:13:45;;;;;;;;;;;;;;;6.51;100.00;99394.28;4995049;28;19918;-84
2023/05/22 19:16:31;;;;;;;;;;;;;;;6.56;100.00;99394.13;4995641;28;20365;-85
2023/05/22 19:18:56;;;;;;;;;;;;;;;6.64;100.00;99396.50;4995681;28;20050;-85
2023/05/22 19:21:22;;;;;;;;;;;;;;;6.62;100.00;99400.94;4993435;28;20393;-85
2023/05/22 19:23:47;;;;;;;;;;;;;;;6.54;100.00;99412.59;4995348;28;19922;-86
2023/05/22 19:26:13;;;;;;;;;;;;;;;6.63;100.00;99413.22;4994258;28;19918;-85
2023/05/22 19:28:38;;;;;;;;;;;;;;;6.64;100.00;99413.16;4995376;28;20036;-85
2023/05/22 19:31:06;;;;;;;;;;;;;;;6.59;100.00;99415.09;4994793;28;19917;-86
2023/05/22 19:33:31;;;;;;;;;;;;;;;6.58;100.00;99418.63;4995244;28;20121;-85
2023/05/22 19:35:57;;;;;;;;;;;;;;;6.55;100.00;99419.56;4994887;28;20007;-85
2023/05/22 19:38:23;;;;;;;;;;;;;;;6.60;100.00;99424.69;4976647;28;19922;-85
2023/05/22 19:40:48;;;;;;;;;;;;;;;6.59;100.00;99425.63;4994007;28;19921;-85
2023/05/22 19:43:13;;;;;;;;;;;;;;;6.59;100.00;99436.16;4995176;28;20347;-85
2023/05/22 19:45:38;;;;;;;;;;;;;;;6.66;100.00;99444.69;4993848;28;19921;-85
2023/05/22 19:48:04;;;;;;;;;;;;;;;6.65;100.00;99438.59;4995073;28;19925;-85
2023/05/22 19:50:29;;;;;;;;;;;;;;;6.59;100.00;99438.78;4995133;28;19922;-85
2023/05/22 19:52:55;;;;;;;;;;;;;;;6.55;100.00;99447.66;4976719;28;20012;-83
2023/05/22 19:55:36;;;;;;;;;;;;;;;6.50;100.00;99455.72;4993855;28;20000;-86
2023/05/22 19:58:01;;;;;;;;;;;;;;;6.55;100.00;99460.84;4977444;28;19921;-85
2023/05/22 20:00:28;;;;;;;;;;;;;;;6.57;100.00;99466.91;4993722;28;20420;-83
2023/05/22 20:02:53;;;;;;;;;;;;;;;6.50;100.00;99470.66;4990222;28;19921;-85
2023/05/22 20:05:18;;;;;;;;;;;;;;;6.57;100.00;99474.78;4977357;28;19925;-85
2023/05/22 20:07:45;;;;;;;;;;;;;;;6.58;100.00;99473.91;4992621;28;19921;-85
2023/05/22 20:10:11;;;;;;;;;;;;;;;6.57;100.00;99484.47;4992693;28;19989;-85
2023/05/22 20:12:36;;;;;;;;;;;;;;;6.61;100.00;99479.06;4993721;28;19921;-84
2023/05/22 20:15:03;;;;;;;;;;;;;;;6.58;100.00;99484.44;4977250;28;19921;-84
2023/05/22 20:17:28;;;;;;;;;;;;;;;6.53;100.00;99489.84;4976813;28;19918;-86
2023/05/22 20:19:54;;;;;;;;;;;;;;;6.55;100.00;99479.25;4993603;28;19918;-85
2023/05/22 20:22:19;;;;;;;;;;;;;;;6.53;100.00;99489.84;4993111;28;20373;-85
2023/05/22 20:24:46;;;;;;;;;;;;;;;6.56;100.00;99491.53;4991829;28;19922;-85
2023/05/22 20:27:11;;;;;;;;;;;;;;;6.48;100.00;99497.03;4993966;28;19960;-84
2023/05/22 20:29:36;;;;;;;;;;;;;;;6.53;100.00;99496.88;4976669;28;20000;-84
2023/05/22 20:32:02;;;;;;;;;;;;;;;6.46;100.00;99501.47;4994346;28;19918;-85
2023/05/22 20:34:27;;;;;;;;;;;;;;;6.49;100.00;99508.41;4994079;28;19922;-84
2023/05/22 20:36:53;;;;;;;;;;;;;;;6.44;100.00;99508.53;4994089;28;19922;-84
2023/05/22 20:39:18;;;;;;;;;;;;;;;6.50;100.00;99508.34;4990752;28;19966;-85
2023/05/22 20:41:45;;;;;;;;;;;;;;;6.47;100.00;99511.06;4993957;28;19922;-84
2023/05/22 20:44:10;;;;;;;;;;;;;;;6.46;100.00;99509.38;4992699;28;20008;-84
2023/05/22 20:46:35;;;;;;;;;;;;;;;6.35;100.00;99516.69;4994059;28;20390;-85
2023/05/22 20:49:01;;;;;;;;;;;;;;;6.48;100.00;99517.22;4993776;28;19928;-85
2023/05/22 20:51:31;;;;;;;;;;;;;;;6.47;100.00;99524.25;4993906;28;20021;-85
2023/05/22 20:53:57;;;;;;;;;;;;;;;6.38;100.00;99521.03;4992554;28;19976;-85
2023/05/22 20:56:23;;;;;;;;;;;;;;;6.40;100.00;99527.97;4991270;28;19918;-85
2023/05/22 20:58:48;;;;;;;;;;;;;;;6.54;100.00;99532.81;4993730;28;19918;-85
2023/05/22 21:01:14;;;;;;;;;;;;;;;6.36;100.00;99531.59;4994084;28;19918;-85
2023/05/22 21:03:39;;;;;;;;;;;;;;;6.34;100.00;99530.78;4993051;28;19918;-85
2023/05/22 21:06:05;;;;;;;;;;;;;;;6.43;100.00;99538.41;4993589;28;19922;-87
2023/05/22 21:08:30;;;;;;;;;;;;;;;6.47;100.00;99539.19;4993582;28;19917;-84
2023/05/22 21:10:55;;;;;;;;;;;;;;;6.34;100.00;99533.41;4992451;28;19964;-88
2023/05/22 21:13:21;;;;;;;;;;;;;;;6.36;100.00;99531.59;4992667;28;19961;-85
2023/05/22 21:15:46;;;;;;;;;;;;;;;6.35;100.00;99533.38;4993417;28;20783;-85
2023/05/22 21:18:11;;;;;;;;;;;;;;;6.32;100.00;99538.72;4993423;28;19921;-86
2023/05/22 21:20:37;;;;;;;;;;;;;;;6.32;100.00;99537.88;4993340;28;20500;-86
2023/05/22 21:23:02;;;;;;;;;;;;;;;6.34;100.00;99539.53;4993181;28;19945;-85
2023/05/22 21:25:37;;;;;;;;;;;;;;;6.34;100.00;99543.94;4992318;28;20297;-87
2023/05/22 21:28:06;;;;;;;;;;;;;;;6.35;100.00;99554.44;4992270;28;19918;-88
2023/05/22 21:30:31;;;;;;;;;;;;;;;6.30;100.00;99548.44;4993127;28;19918;-86
2023/05/22 21:32:57;;;;;;;;;;;;;;;6.32;100.00;99551.88;4992194;28;19930;-86
2023/05/22 21:35:22;;;;;;;;;;;;;;;6.30;100.00;99553.72;4991299;28;20029;-85
2023/05/22 21:37:47;;;;;;;;;;;;;;;6.32;100.00;99549.25;4992397;28;20827;-86
2023/05/22 21:40:13;;;;;;;;;;;;;;;6.29;100.00;99561.66;4991697;28;19962;-91
2023/05/22 21:42:38;;;;;;;;;;;;;;;6.30;100.00;99563.34;4975519;28;20008;-88
2023/05/22 21:45:04;;;;;;;;;;;;;;;6.48;100.00;99557.56;4973825;28;19922;-85
2023/05/22 21:47:30;;;;;;;;;;;;;;;6.17;100.00;99568.97;4991190;28;20053;-83
2023/05/22 21:49:55;;;;;;;;;;;;;;;6.09;100.00;99568.31;4975280;28;20024;-85
2023/05/22 21:52:26;;;;;;;;;;;;;;;6.17;100.00;99573.38;4989092;28;19929;-85
2023/05/22 21:54:52;;;;;;;;;;;;;;;6.16;100.00;99571.66;4990504;28;19924;-85
2023/05/22 21:57:17;;;;;;;;;;;;;;;6.17;100.00;99579.50;4975363;28;19928;-84
2023/05/22 21:59:43;;;;;;;;;;;;;;;6.19;100.00;99579.47;4992590;28;19917;-85
2023/05/22 22:02:13;;;;;;;;;;;;;;;6.15;100.00;99578.66;4989732;28;19932;-84
2023/05/22 22:04:39;;;;;;;;;;;;;;;6.21;100.00;99577.66;4974304;28;19980;-86
2023/05/22 22:07:04;;;;;;;;;;;;;;;6.28;100.00;99580.97;4992698;28;20334;-87
2023/05/22 22:09:29;;;;;;;;;;;;;;;6.27;100.00;99585.38;4991369;28;20397;-87
2023/05/22 22:11:55;;;;;;;;;;;;;;;6.24;100.00;99585.44;4974040;28;19918;-87
2023/05/22 22:14:20;;;;;;;;;;;;;;;6.28;100.00;99580.97;4992621;28;19924;-87
2023/05/22 22:16:45;;;;;;;;;;;;;;;6.34;100.00;99586.91;4992466;28;19918;-87
2023/05/22 22:19:11;;;;;;;;;;;;;;;6.39;100.00;99583.28;4975027;28;19968;-87
2023/05/22 22:21:36;;;;;;;;;;;;;;;6.33;100.00;99590.47;4992562;28;19940;-86
2023/05/22 22:24:02;;;;;;;;;;;;;;;6.32;100.00;99596.63;4992447;28;19928;-87
2023/05/22 22:26:30;;;;;;;;;;;;;;;6.30;100.00;99589.66;4991077;28;19960;-87
2023/05/22 22:28:59;;;;;;;;;;;;;;;6.29;100.00;99594.06;4992392;28;19918;-88
